Time;durP1;ratioP1;P1;durP2;ratioP2;P2;SDS_P1;SDS_P2;PMS_P1;PMS_P2;Temp;Humidity;BMP_temperature;BMP_pressure;BME280_temperature;BME280_humidity;BME280_pressure;Samples;Min_cycle;Max_cycle;Signal;HPM_P1;HPM_P2
2022/10/01 00:02:03;;;;;;;3.93;2.40;;;;;;;;;;5031319;28;21213;-61
2022/10/01 00:04:30;;;;;;;5.10;2.50;;;;;;;;;;5031085;28;20602;-61
2022/10/01 00:07:03;;;;;;;5.43;2.80;;;;;;;;;;5031083;28;20698;-61
2022/10/01 00:09:30;;;;;;;3.63;2.70;;;;;;;;;;5031069;28;20233;-61
2022/10/01 00:11:58;;;;;;;7.50;2.83;;;;;;;;;;5031414;28;20212;-61
2022/10/01 00:14:25;;;;;;;3.23;2.93;;;;;;;;;;5031445;28;20622;-62
2022/10/01 00:16:52;;;;;;;2.97;2.70;;;;;;;;;;5031267;28;20219;-62
2022/10/01 00:19:20;;;;;;;2.80;2.60;;;;;;;;;;5030848;28;20197;-61
2022/10/01 00:21:47;;;;;;;2.77;2.53;;;;;;;;;;5031044;28;20236;-61
2022/10/01 00:24:15;;;;;;;2.97;2.77;;;;;;;;;;5030481;28;20227;-61
2022/10/01 00:26:44;;;;;;;2.90;2.63;;;;;;;;;;5030441;28;20782;-61
2022/10/01 00:29:12;;;;;;;2.83;2.63;;;;;;;;;;5030690;28;20308;-61
2022/10/01 00:31:39;;;;;;;3.10;2.90;;;;;;;;;;5030708;28;20216;-62
2022/10/01 00:34:06;;;;;;;2.67;2.40;;;;;;;;;;5029930;28;20204;-61
2022/10/01 00:36:33;;;;;;;2.60;2.40;;;;;;;;;;5030080;28;20571;-61
2022/10/01 00:39:01;;;;;;;3.23;3.00;;;;;;;;;;5029608;28;20205;-61
2022/10/01 00:41:30;;;;;;;3.50;3.20;;;;;;;;;;5030020;28;20291;-61
2022/10/01 00:43:59;;;;;;;5.60;3.30;;;;;;;;;;5030348;28;20212;-61
2022/10/01 00:46:28;;;;;;;3.73;2.80;;;;;;;;;;5030057;28;20216;-61
2022/10/01 00:48:57;;;;;;;2.93;2.73;;;;;;;;;;5030262;28;20204;-61
2022/10/01 00:51:27;;;;;;;3.03;2.83;;;;;;;;;;5024120;28;20236;-59
2022/10/01 00:53:55;;;;;;;2.90;2.70;;;;;;;;;;5029490;28;20967;-59
2022/10/01 00:56:23;;;;;;;2.67;2.50;;;;;;;;;;5029503;28;20812;-59
2022/10/01 00:58:54;;;;;;;3.17;2.87;;;;;;;;;;5029381;28;20200;-59
2022/10/01 01:01:23;;;;;;;3.53;3.13;;;;;;;;;;5029738;28;20609;-59
2022/10/01 01:06:40;;;;;;;2.97;2.77;;;;;;;;;;5023679;28;20212;-60
2022/10/01 01:09:07;;;;;;;3.10;2.90;;;;;;;;;;5028855;28;20303;-59
2022/10/01 01:11:39;;;;;;;3.37;3.07;;;;;;;;;;5028011;28;21007;-59
2022/10/01 01:14:12;;;;;;;3.77;3.47;;;;;;;;;;5029457;28;20209;-59
2022/10/01 01:16:41;;;;;;;3.73;3.43;;;;;;;;;;5029440;28;20211;-60
2022/10/01 01:19:13;;;;;;;6.00;3.17;;;;;;;;;;5029760;28;20204;-59
2022/10/01 01:21:42;;;;;;;4.53;3.40;;;;;;;;;;5029143;28;20207;-59
2022/10/01 01:24:21;;;;;;;3.20;3.00;;;;;;;;;;5028983;28;20205;-59
2022/10/01 01:27:05;;;;;;;3.40;3.07;;;;;;;;;;5028486;28;20232;-59
2022/10/01 01:29:35;;;;;;;3.33;3.03;;;;;;;;;;5028251;28;20561;-60
2022/10/01 01:32:06;;;;;;;3.37;2.87;;;;;;;;;;5029355;28;20208;-60
2022/10/01 01:34:34;;;;;;;2.90;2.70;;;;;;;;;;5029223;28;20283;-60
2022/10/01 01:37:04;;;;;;;3.40;3.10;;;;;;;;;;5029271;28;20208;-60
2022/10/01 01:39:32;;;;;;;3.27;3.07;;;;;;;;;;5028726;28;20204;-60
2022/10/01 01:42:04;;;;;;;3.50;3.17;;;;;;;;;;5029191;28;20862;-60
2022/10/01 01:44:33;;;;;;;3.53;3.23;;;;;;;;;;5028419;28;20578;-60
2022/10/01 01:47:02;;;;;;;2.70;2.60;;;;;;;;;;5029334;28;20273;-60
2022/10/01 01:49:29;;;;;;;2.63;2.47;;;;;;;;;;5029030;28;20697;-60
2022/10/01 01:51:59;;;;;;;5.07;2.77;;;;;;;;;;5028053;28;20208;-60
2022/10/01 01:54:29;;;;;;;3.57;3.27;;;;;;;;;;5028928;28;20204;-60
2022/10/01 01:56:57;;;;;;;4.17;3.10;;;;;;;;;;5028707;28;20682;-60
2022/10/01 01:59:24;;;;;;;8.33;3.57;;;;;;;;;;5029026;28;20377;-60
2022/10/01 02:01:51;;;;;;;3.90;3.50;;;;;;;;;;5028897;28;20208;-60
2022/10/01 02:04:22;;;;;;;3.87;3.47;;;;;;;;;;5028622;28;20286;-60
2022/10/01 02:07:02;;;;;;;2.53;2.43;;;;;;;;;;5029340;28;20212;-60
2022/10/01 02:09:32;;;;;;;4.00;3.70;;;;;;;;;;5028465;28;20655;-60
2022/10/01 02:12:06;;;;;;;6.50;4.50;;;;;;;;;;5028936;28;20216;-60
2022/10/01 02:14:35;;;;;;;7.77;3.20;;;;;;;;;;5028695;28;20197;-60
2022/10/01 02:17:07;;;;;;;7.40;4.10;;;;;;;;;;5028462;28;20209;-60
2022/10/01 02:19:37;;;;;;;5.47;4.07;;;;;;;;;;5028193;28;20576;-60
2022/10/01 02:22:09;;;;;;;5.23;4.70;;;;;;;;;;5028767;28;20212;-60
2022/10/01 02:24:38;;;;;;;4.27;3.93;;;;;;;;;;5028471;28;20216;-60
2022/10/01 02:27:09;;;;;;;4.47;4.10;;;;;;;;;;5028703;28;20235;-60
2022/10/01 02:29:36;;;;;;;4.00;3.60;;;;;;;;;;5028272;28;20750;-60
2022/10/01 02:32:03;;;;;;;9.27;4.57;;;;;;;;;;5028343;28;20208;-60
2022/10/01 02:34:31;;;;;;;4.67;4.17;;;;;;;;;;5031877;28;20675;-60
2022/10/01 02:37:01;;;;;;;4.63;4.20;;;;;;;;;;5032176;28;20200;-60
2022/10/01 02:39:30;;;;;;;3.87;3.53;;;;;;;;;;5031967;28;20675;-60
2022/10/01 02:41:58;;;;;;;6.83;4.03;;;;;;;;;;5031762;28;20231;-60
2022/10/01 02:44:30;;;;;;;4.80;4.20;;;;;;;;;;5031612;28;20208;-61
2022/10/01 02:47:00;;;;;;;8.67;4.37;;;;;;;;;;5031319;28;20215;-60
2022/10/01 02:49:28;;;;;;;6.80;4.50;;;;;;;;;;5032098;28;20207;-60
2022/10/01 02:52:00;;;;;;;5.17;3.93;;;;;;;;;;5031356;28;20671;-61
2022/10/01 02:54:31;;;;;;;6.40;4.40;;;;;;;;;;5031133;28;20601;-60
2022/10/01 02:59:43;;;;;;;6.60;3.67;;;;;;;;;;5031565;28;20226;-60
2022/10/01 03:02:10;;;;;;;4.97;3.40;;;;;;;;;;5031905;28;20201;-60
2022/10/01 03:04:37;;;;;;;4.00;3.70;;;;;;;;;;5031535;28;20230;-60
2022/10/01 03:07:04;;;;;;;6.00;3.37;;;;;;;;;;5031628;28;20726;-61
2022/10/01 03:09:34;;;;;;;3.50;3.23;;;;;;;;;;5022678;28;20249;-60
2022/10/01 03:12:02;;;;;;;3.63;3.33;;;;;;;;;;5032303;28;20580;-60
2022/10/01 03:14:33;;;;;;;3.90;3.03;;;;;;;;;;5031777;28;20204;-61
2022/10/01 03:17:00;;;;;;;3.30;3.10;;;;;;;;;;5031593;28;20208;-61
2022/10/01 03:19:27;;;;;;;3.33;3.03;;;;;;;;;;5031806;28;20586;-60
2022/10/01 03:21:55;;;;;;;5.60;3.70;;;;;;;;;;5031764;28;20589;-60
2022/10/01 03:24:22;;;;;;;4.03;3.63;;;;;;;;;;5030545;28;20200;-60
2022/10/01 03:26:50;;;;;;;3.40;3.17;;;;;;;;;;5030356;28;20290;-61
2022/10/01 03:29:17;;;;;;;5.97;3.30;;;;;;;;;;5030326;28;20228;-61
2022/10/01 03:31:44;;;;;;;4.70;3.07;;;;;;;;;;5031111;28;20219;-62
2022/10/01 03:34:12;;;;;;;4.43;3.50;;;;;;;;;;5030189;28;20220;-61
2022/10/01 03:36:39;;;;;;;4.10;2.97;;;;;;;;;;5030199;28;20841;-61
2022/10/01 03:39:06;;;;;;;3.47;3.17;;;;;;;;;;5030062;28;20208;-61
2022/10/01 03:41:33;;;;;;;3.37;3.07;;;;;;;;;;5029971;28;20197;-61
2022/10/01 03:44:02;;;;;;;3.50;3.20;;;;;;;;;;5029352;28;20205;-61
2022/10/01 03:46:29;;;;;;;3.73;3.43;;;;;;;;;;5028620;28;20236;-61
2022/10/01 03:48:59;;;;;;;2.67;2.57;;;;;;;;;;5029377;28;20212;-61
2022/10/01 03:51:27;;;;;;;3.07;2.87;;;;;;;;;;5028983;28;20247;-62
2022/10/01 03:53:54;;;;;;;2.83;2.67;;;;;;;;;;5028480;28;20201;-61
2022/10/01 03:56:21;;;;;;;2.70;2.50;;;;;;;;;;5029424;28;20208;-61
2022/10/01 03:58:48;;;;;;;2.73;2.53;;;;;;;;;;5029246;28;20211;-62
2022/10/01 04:01:16;;;;;;;3.97;2.10;;;;;;;;;;5029577;28;20239;-62
2022/10/01 04:03:44;;;;;;;2.63;2.47;;;;;;;;;;5028961;28;20231;-62
2022/10/01 04:06:11;;;;;;;2.90;2.70;;;;;;;;;;5028524;28;20859;-62
2022/10/01 04:08:38;;;;;;;2.63;2.07;;;;;;;;;;5029121;28;20209;-61
2022/10/01 04:11:05;;;;;;;3.37;2.60;;;;;;;;;;5028687;28;20205;-62
2022/10/01 04:13:33;;;;;;;2.60;2.37;;;;;;;;;;5028913;28;20205;-62
2022/10/01 04:16:00;;;;;;;4.03;2.63;;;;;;;;;;5028914;28;20200;-62
2022/10/01 04:18:29;;;;;;;2.43;2.27;;;;;;;;;;5028549;28;20201;-61
2022/10/01 04:20:56;;;;;;;2.77;2.57;;;;;;;;;;5028712;28;20633;-61
2022/10/01 04:23:23;;;;;;;3.10;2.90;;;;;;;;;;5028449;28;20201;-62
2022/10/01 04:25:50;;;;;;;3.30;2.60;;;;;;;;;;4992358;28;1039308;-62
2022/10/01 04:28:18;;;;;;;2.27;1.97;;;;;;;;;;5029627;28;20204;-61
2022/10/01 04:30:45;;;;;;;3.03;2.83;;;;;;;;;;5029531;28;20251;-61
2022/10/01 04:33:13;;;;;;;2.33;1.90;;;;;;;;;;5029082;28;20227;-61
2022/10/01 04:35:42;;;;;;;2.07;2.00;;;;;;;;;;5029571;28;20211;-61
2022/10/01 04:38:12;;;;;;;2.40;2.20;;;;;;;;;;5029422;28;20240;-61
2022/10/01 04:40:40;;;;;;;1.97;1.87;;;;;;;;;;5029146;28;20299;-61
2022/10/01 04:43:08;;;;;;;2.33;2.13;;;;;;;;;;5029192;28;20212;-62
2022/10/01 04:45:35;;;;;;;2.70;2.50;;;;;;;;;;5029432;28;20262;-61
2022/10/01 04:48:03;;;;;;;2.20;2.10;;;;;;;;;;5029184;28;20276;-61
2022/10/01 04:50:31;;;;;;;5.70;2.33;;;;;;;;;;5029035;28;20204;-62
2022/10/01 04:52:59;;;;;;;3.47;1.97;;;;;;;;;;5029193;28;20212;-61
2022/10/01 04:55:26;;;;;;;2.30;2.20;;;;;;;;;;5027602;28;20227;-61
2022/10/01 04:57:53;;;;;;;2.80;2.60;;;;;;;;;;5028698;28;20206;-62
2022/10/01 05:00:23;;;;;;;2.47;2.27;;;;;;;;;;5028793;28;20212;-61
2022/10/01 05:02:50;;;;;;;2.03;1.93;;;;;;;;;;5028667;28;20225;-61
2022/10/01 05:05:18;;;;;;;2.57;1.87;;;;;;;;;;5029049;28;20204;-62
2022/10/01 05:07:45;;;;;;;2.20;2.10;;;;;;;;;;5011150;28;20209;-61
2022/10/01 05:10:14;;;;;;;1.83;1.70;;;;;;;;;;5028490;28;20196;-61
2022/10/01 05:12:42;;;;;;;2.27;1.90;;;;;;;;;;5028663;28;20223;-62
2022/10/01 05:15:09;;;;;;;2.37;1.50;;;;;;;;;;5028743;28;20208;-61
2022/10/01 05:17:36;;;;;;;1.97;1.87;;;;;;;;;;5022341;28;20580;-61
2022/10/01 05:20:04;;;;;;;2.20;2.07;;;;;;;;;;5028629;28;20212;-61
2022/10/01 05:22:31;;;;;;;2.13;1.77;;;;;;;;;;5026323;28;20197;-61
2022/10/01 05:24:58;;;;;;;2.30;2.00;;;;;;;;;;5027497;28;20561;-62
2022/10/01 05:27:27;;;;;;;2.30;1.77;;;;;;;;;;5028780;28;20224;-61
2022/10/01 05:29:55;;;;;;;1.70;1.60;;;;;;;;;;5028113;28;20204;-61
2022/10/01 05:32:23;;;;;;;2.30;2.00;;;;;;;;;;5028152;28;20792;-61
2022/10/01 05:34:50;;;;;;;2.10;1.70;;;;;;;;;;5028510;28;20698;-60
2022/10/01 05:37:18;;;;;;;1.90;1.90;;;;;;;;;;5028081;28;20204;-61
2022/10/01 05:39:45;;;;;;;2.43;2.23;;;;;;;;;;5027920;28;20208;-61
2022/10/01 05:42:12;;;;;;;2.00;1.90;;;;;;;;;;5028549;28;20200;-61
2022/10/01 05:44:44;;;;;;;3.70;2.43;;;;;;;;;;5027947;28;20351;-61
2022/10/01 05:47:12;;;;;;;3.53;2.27;;;;;;;;;;5028763;28;20236;-61
2022/10/01 05:49:42;;;;;;;1.93;1.83;;;;;;;;;;5028247;28;20235;-61
2022/10/01 05:52:09;;;;;;;2.10;2.00;;;;;;;;;;5027719;28;20212;-61
2022/10/01 05:54:36;;;;;;;1.43;1.40;;;;;;;;;;5027676;28;20204;-61
2022/10/01 05:57:04;;;;;;;2.23;2.03;;;;;;;;;;5028248;28;20207;-66
2022/10/01 05:59:31;;;;;;;2.57;2.00;;;;;;;;;;5027213;28;20872;-61
2022/10/01 06:01:59;;;;;;;2.30;2.10;;;;;;;;;;5028406;28;20216;-61
2022/10/01 06:04:26;;;;;;;1.97;1.87;;;;;;;;;;5027663;28;20228;-61
2022/10/01 06:06:54;;;;;;;1.93;1.83;;;;;;;;;;5027904;28;20235;-61
2022/10/01 06:09:21;;;;;;;2.20;2.00;;;;;;;;;;5027460;28;20286;-62
2022/10/01 06:11:48;;;;;;;5.13;1.90;;;;;;;;;;5028209;28;20582;-63
2022/10/01 06:14:15;;;;;;;2.33;2.17;;;;;;;;;;5028106;28;20860;-61
2022/10/01 06:16:42;;;;;;;1.67;1.67;;;;;;;;;;5028476;28;20250;-61
2022/10/01 06:19:11;;;;;;;2.53;1.80;;;;;;;;;;5028091;28;20217;-62
2022/10/01 06:21:38;;;;;;;1.97;1.87;;;;;;;;;;5028405;28;20233;-61
2022/10/01 06:24:05;;;;;;;1.90;1.80;;;;;;;;;;5028319;28;20212;-62
2022/10/01 06:26:32;;;;;;;1.70;1.60;;;;;;;;;;5027643;28;20228;-59
2022/10/01 06:29:02;;;;;;;1.37;1.30;;;;;;;;;;5027824;28;20263;-59
2022/10/01 06:31:29;;;;;;;2.10;2.00;;;;;;;;;;5024534;28;20353;-61
2022/10/01 06:33:56;;;;;;;2.37;2.17;;;;;;;;;;5018725;28;20678;-62
2022/10/01 06:36:25;;;;;;;1.60;1.53;;;;;;;;;;5027906;28;20278;-61
2022/10/01 06:38:52;;;;;;;1.43;1.43;;;;;;;;;;5028056;28;20204;-61
2022/10/01 06:41:19;;;;;;;1.73;1.70;;;;;;;;;;5027427;28;20219;-62
2022/10/01 06:43:46;;;;;;;2.50;2.00;;;;;;;;;;5028226;28;20293;-62
2022/10/01 06:46:13;;;;;;;1.67;1.60;;;;;;;;;;5028033;28;20311;-62
2022/10/01 06:48:40;;;;;;;1.90;1.80;;;;;;;;;;5027798;28;20204;-61
2022/10/01 06:51:07;;;;;;;2.70;1.80;;;;;;;;;;5021299;28;20205;-62
2022/10/01 06:53:36;;;;;;;1.77;1.67;;;;;;;;;;5024921;28;20262;-61
2022/10/01 06:56:06;;;;;;;2.50;1.37;;;;;;;;;;5027800;28;20210;-61
2022/10/01 06:58:33;;;;;;;1.63;1.57;;;;;;;;;;5028124;28;20259;-62
2022/10/01 07:01:00;;;;;;;1.57;1.57;;;;;;;;;;5028073;28;20204;-61
2022/10/01 07:03:28;;;;;;;1.80;1.70;;;;;;;;;;5028023;28;20220;-62
2022/10/01 07:05:55;;;;;;;2.40;1.60;;;;;;;;;;5028465;28;20205;-62
2022/10/01 07:08:22;;;;;;;1.73;1.63;;;;;;;;;;5028540;28;20209;-61
2022/10/01 07:10:51;;;;;;;1.70;1.60;;;;;;;;;;5027541;28;20212;-61
2022/10/01 07:13:19;;;;;;;1.67;1.57;;;;;;;;;;5028539;28;20215;-62
2022/10/01 07:15:46;;;;;;;1.43;1.40;;;;;;;;;;5027677;28;20635;-61
2022/10/01 07:18:14;;;;;;;1.80;1.70;;;;;;;;;;5028229;28;20937;-61
2022/10/01 07:20:41;;;;;;;1.20;1.20;;;;;;;;;;5031752;28;20279;-61
2022/10/01 07:23:10;;;;;;;1.80;1.30;;;;;;;;;;5031521;28;20302;-61
2022/10/01 07:25:38;;;;;;;2.53;1.47;;;;;;;;;;5031080;28;20342;-60
2022/10/01 07:28:14;;;;;;;1.13;1.13;;;;;;;;;;5031454;28;20256;-60
2022/10/01 07:30:41;;;;;;;1.00;1.00;;;;;;;;;;5030023;28;20753;-60
2022/10/01 07:33:09;;;;;;;3.07;1.40;;;;;;;;;;5031544;28;20204;-61
2022/10/01 07:35:37;;;;;;;1.53;1.27;;;;;;;;;;5030677;28;20200;-60
2022/10/01 07:38:06;;;;;;;1.27;1.27;;;;;;;;;;5030952;28;20659;-59
2022/10/01 07:40:33;;;;;;;1.47;1.37;;;;;;;;;;5031239;28;20576;-61
2022/10/01 07:43:00;;;;;;;1.63;1.53;;;;;;;;;;5030626;28;20216;-60
2022/10/01 07:45:28;;;;;;;1.20;1.20;;;;;;;;;;5029935;28;20722;-60
2022/10/01 07:47:56;;;;;;;1.30;1.20;;;;;;;;;;5030574;28;20725;-60
2022/10/01 07:50:24;;;;;;;1.30;1.30;;;;;;;;;;5029860;28;20208;-60
2022/10/01 07:52:52;;;;;;;1.17;1.07;;;;;;;;;;5030419;28;20774;-60
2022/10/01 07:55:19;;;;;;;1.50;1.40;;;;;;;;;;5030450;28;20896;-61
2022/10/01 07:57:51;;;;;;;1.37;1.37;;;;;;;;;;5030299;28;20663;-59
2022/10/01 08:00:18;;;;;;;1.13;1.13;;;;;;;;;;5021151;28;20201;-59
2022/10/01 08:02:49;;;;;;;3.17;1.40;;;;;;;;;;5029454;28;20229;-59
2022/10/01 08:05:20;;;;;;;1.30;1.30;;;;;;;;;;5030084;28;20291;-59
2022/10/01 08:07:47;;;;;;;1.30;1.30;;;;;;;;;;5030566;28;20231;-60
2022/10/01 08:10:14;;;;;;;1.57;1.47;;;;;;;;;;5029924;28;20224;-69
2022/10/01 08:12:42;;;;;;;1.30;1.30;;;;;;;;;;5030413;28;20217;-59
2022/10/01 08:15:10;;;;;;;1.20;1.20;;;;;;;;;;5030187;28;20204;-68
2022/10/01 08:17:37;;;;;;;1.53;1.43;;;;;;;;;;5029825;28;20299;-60
2022/10/01 08:20:07;;;;;;;1.50;1.40;;;;;;;;;;5029813;28;20208;-61
2022/10/01 08:22:34;;;;;;;1.67;1.57;;;;;;;;;;5027633;28;20212;-60
2022/10/01 08:25:01;;;;;;;2.30;1.53;;;;;;;;;;5029152;28;20214;-60
2022/10/01 08:27:28;;;;;;;3.07;1.37;;;;;;;;;;5029668;28;20236;-61
2022/10/01 08:29:55;;;;;;;1.67;1.40;;;;;;;;;;5029038;28;20223;-60
2022/10/01 08:32:24;;;;;;;1.13;1.13;;;;;;;;;;5029698;28;20196;-62
2022/10/01 08:34:53;;;;;;;1.10;1.10;;;;;;;;;;5029742;28;20808;-61
2022/10/01 08:37:24;;;;;;;2.63;1.07;;;;;;;;;;5030132;28;20231;-61
2022/10/01 08:39:55;;;;;;;0.90;0.90;;;;;;;;;;5029504;28;20209;-61
2022/10/01 08:42:33;;;;;;;1.23;1.23;;;;;;;;;;5026036;28;20207;-60
2022/10/01 08:45:02;;;;;;;0.90;0.90;;;;;;;;;;5029595;28;20296;-60
2022/10/01 08:47:32;;;;;;;1.27;1.20;;;;;;;;;;5029429;28;20232;-62
2022/10/01 08:50:01;;;;;;;1.10;1.03;;;;;;;;;;5029707;28;20848;-60
2022/10/01 08:52:31;;;;;;;1.40;1.13;;;;;;;;;;5029418;28;20662;-61
2022/10/01 08:54:59;;;;;;;2.40;0.80;;;;;;;;;;5028666;28;20200;-61
2022/10/01 08:57:29;;;;;;;0.90;0.90;;;;;;;;;;5029681;28;20215;-61
2022/10/01 08:59:58;;;;;;;1.10;1.10;;;;;;;;;;5029426;28;20237;-60
2022/10/01 09:02:26;;;;;;;1.00;0.87;;;;;;;;;;5028882;28;20205;-59
2022/10/01 09:04:55;;;;;;;1.13;1.13;;;;;;;;;;5029057;28;20205;-60
2022/10/01 09:07:35;;;;;;;1.17;1.17;;;;;;;;;;5029362;28;20235;-61
2022/10/01 09:10:06;;;;;;;1.20;1.10;;;;;;;;;;5028535;28;21889;-60
2022/10/01 09:12:40;;;;;;;0.90;0.90;;;;;;;;;;5029191;28;20210;-60
2022/10/01 09:15:16;;;;;;;2.50;0.93;;;;;;;;;;5029123;28;20210;-60
2022/10/01 09:17:48;;;;;;;0.90;0.90;;;;;;;;;;5029094;28;20254;-59
2022/10/01 09:20:21;;;;;;;1.80;0.80;;;;;;;;;;5028505;28;20205;-59
2022/10/01 09:22:53;;;;;;;1.00;1.00;;;;;;;;;;5028793;28;20215;-60
2022/10/01 09:25:22;;;;;;;0.53;0.53;;;;;;;;;;5028834;28;20663;-60
2022/10/01 09:30:55;;;;;;;1.00;1.00;;;;;;;;;;5022338;28;20207;-60
2022/10/01 09:33:23;;;;;;;1.30;1.20;;;;;;;;;;5026699;28;20208;-60
2022/10/01 09:35:53;;;;;;;1.00;1.00;;;;;;;;;;5028820;28;20667;-60
2022/10/01 09:38:23;;;;;;;1.83;1.10;;;;;;;;;;5028430;28;20201;-59
2022/10/01 09:40:53;;;;;;;3.80;1.00;;;;;;;;;;5028216;28;20200;-62
2022/10/01 09:43:22;;;;;;;0.80;0.80;;;;;;;;;;5027984;28;20212;-60
2022/10/01 09:45:49;;;;;;;2.30;0.60;;;;;;;;;;5028846;28;20863;-60
2022/10/01 09:48:20;;;;;;;0.60;0.60;;;;;;;;;;5027768;28;20678;-60
2022/10/01 09:50:53;;;;;;;1.00;0.90;;;;;;;;;;5027918;28;20204;-60
2022/10/01 09:53:24;;;;;;;0.93;0.93;;;;;;;;;;5027725;28;20744;-60
2022/10/01 09:55:53;;;;;;;0.83;0.83;;;;;;;;;;5027772;28;20596;-61
2022/10/01 09:58:22;;;;;;;1.33;0.67;;;;;;;;;;5027648;28;20661;-60
2022/10/01 10:00:50;;;;;;;0.87;0.87;;;;;;;;;;5028211;28;20322;-60
2022/10/01 10:03:29;;;;;;;1.17;1.17;;;;;;;;;;5027866;28;20224;-61
2022/10/01 10:05:58;;;;;;;0.87;0.87;;;;;;;;;;5027755;28;20204;-60
2022/10/01 10:08:29;;;;;;;0.93;0.93;;;;;;;;;;5027567;28;20220;-59
2022/10/01 10:10:59;;;;;;;1.10;1.10;;;;;;;;;;5021948;28;20204;-60
2022/10/01 10:13:30;;;;;;;1.50;1.17;;;;;;;;;;5023142;28;20987;-61
2022/10/01 10:15:58;;;;;;;1.30;1.20;;;;;;;;;;5018366;28;20208;-61
2022/10/01 10:18:28;;;;;;;0.90;0.90;;;;;;;;;;5024333;28;20234;-60
2022/10/01 10:20:56;;;;;;;1.03;1.03;;;;;;;;;;5021616;28;20200;-60
2022/10/01 10:23:24;;;;;;;0.90;0.90;;;;;;;;;;5021572;28;20209;-61
2022/10/01 10:25:59;;;;;;;0.90;0.90;;;;;;;;;;5017395;28;20237;-61
2022/10/01 10:28:27;;;;;;;0.93;0.93;;;;;;;;;;5020158;28;20228;-60
2022/10/01 10:30:55;;;;;;;0.90;0.90;;;;;;;;;;5023592;28;20215;-62
2022/10/01 10:33:22;;;;;;;1.70;1.00;;;;;;;;;;5024420;28;20679;-63
2022/10/01 10:35:57;;;;;;;0.93;0.93;;;;;;;;;;5027174;28;20566;-60
2022/10/01 10:38:27;;;;;;;1.00;1.00;;;;;;;;;;5027213;28;20621;-61
2022/10/01 10:40:54;;;;;;;0.80;0.80;;;;;;;;;;5026127;28;20355;-61
2022/10/01 10:43:24;;;;;;;0.80;0.80;;;;;;;;;;5026926;28;20204;-61
2022/10/01 10:45:54;;;;;;;1.07;0.70;;;;;;;;;;5027618;28;20212;-62
2022/10/01 10:48:22;;;;;;;0.63;0.63;;;;;;;;;;5025707;28;20236;-62
2022/10/01 10:50:49;;;;;;;1.53;0.70;;;;;;;;;;5016251;28;20213;-60
2022/10/01 10:53:21;;;;;;;0.80;0.80;;;;;;;;;;5027265;28;20211;-65
2022/10/01 10:55:55;;;;;;;0.60;0.60;;;;;;;;;;5017431;28;20339;-63
2022/10/01 10:58:26;;;;;;;0.60;0.60;;;;;;;;;;5030174;28;20310;-62
2022/10/01 11:00:55;;;;;;;0.60;0.60;;;;;;;;;;5030788;28;20204;-63
2022/10/01 11:03:24;;;;;;;0.60;0.60;;;;;;;;;;5028568;28;20225;-62
2022/10/01 11:06:08;;;;;;;0.47;0.47;;;;;;;;;;5030856;28;20263;-61
2022/10/01 11:08:35;;;;;;;0.60;0.60;;;;;;;;;;5029637;28;20232;-61
2022/10/01 11:11:07;;;;;;;0.40;0.40;;;;;;;;;;5030434;28;20209;-61
2022/10/01 11:13:51;;;;;;;0.60;0.60;;;;;;;;;;5030635;28;20212;-61
2022/10/01 11:16:25;;;;;;;0.40;0.40;;;;;;;;;;5030482;28;20211;-62
2022/10/01 11:18:57;;;;;;;0.67;0.50;;;;;;;;;;5030735;28;20212;-61
2022/10/01 11:21:32;;;;;;;0.60;0.60;;;;;;;;;;5030313;28;20226;-60
2022/10/01 11:24:08;;;;;;;0.60;0.60;;;;;;;;;;5030634;28;20299;-60
2022/10/01 11:26:38;;;;;;;0.40;0.40;;;;;;;;;;5029932;28;20235;-61
2022/10/01 11:29:13;;;;;;;0.57;0.57;;;;;;;;;;5030374;28;20710;-59
2022/10/01 11:31:45;;;;;;;0.53;0.50;;;;;;;;;;5025729;28;20216;-60
2022/10/01 11:34:26;;;;;;;0.50;0.50;;;;;;;;;;5021065;28;20315;-60
2022/10/01 11:36:58;;;;;;;0.50;0.50;;;;;;;;;;5015669;28;20215;-60
2022/10/01 11:39:27;;;;;;;0.67;0.50;;;;;;;;;;5028018;28;20284;-60
2022/10/01 11:41:56;;;;;;;0.83;0.83;;;;;;;;;;5029932;28;20712;-60
2022/10/01 11:44:28;;;;;;;1.13;0.60;;;;;;;;;;5029552;28;20211;-60
2022/10/01 11:46:57;;;;;;;0.30;0.30;;;;;;;;;;5030086;28;20216;-60
2022/10/01 11:49:30;;;;;;;0.17;0.17;;;;;;;;;;5029220;28;20302;-60
2022/10/01 11:52:03;;;;;;;0.20;0.20;;;;;;;;;;5029442;28;20219;-60
2022/10/01 11:54:32;;;;;;;0.20;0.20;;;;;;;;;;5027012;28;20632;-60
2022/10/01 11:59:48;;;;;;;0.20;0.10;;;;;;;;;;5029154;28;20328;-60
2022/10/01 12:02:18;;;;;;;0.20;0.20;;;;;;;;;;5029661;28;20868;-61
2022/10/01 12:04:50;;;;;;;0.10;0.10;;;;;;;;;;5028994;28;20236;-59
2022/10/01 12:07:19;;;;;;;0.20;0.20;;;;;;;;;;5029665;28;20421;-60
2022/10/01 12:09:51;;;;;;;0.30;0.30;;;;;;;;;;5029346;28;20255;-59
2022/10/01 12:12:19;;;;;;;0.33;0.33;;;;;;;;;;5029012;28;20236;-59
2022/10/01 12:14:50;;;;;;;0.30;0.30;;;;;;;;;;5028892;28;20208;-59
2022/10/01 12:17:20;;;;;;;0.57;0.20;;;;;;;;;;5025890;28;20200;-59
2022/10/01 12:19:49;;;;;;;0.27;0.27;;;;;;;;;;5029301;28;20205;-59
2022/10/01 12:22:19;;;;;;;0.45;0.40;;;;;;;;;;5029466;28;20223;-59
2022/10/01 12:24:47;;;;;;;3.92;0.45;;;;;;;;;;5029039;28;20208;-59
2022/10/01 12:27:29;;;;;;;0.70;0.22;;;;;;;;;;5029285;28;20618;-59
2022/10/01 12:30:00;;;;;;;0.57;0.57;;;;;;;;;;5026935;28;20250;-59
2022/10/01 12:32:32;;;;;;;0.30;0.30;;;;;;;;;;5029397;28;20216;-59
2022/10/01 12:35:06;;;;;;;0.40;0.40;;;;;;;;;;5029052;28;20211;-59
2022/10/01 12:37:40;;;;;;;0.30;0.30;;;;;;;;;;5029781;28;20220;-60
2022/10/01 12:40:14;;;;;;;0.30;0.30;;;;;;;;;;5028904;28;20219;-59
2022/10/01 12:42:55;;;;;;;0.30;0.30;;;;;;;;;;5029272;28;20215;-59
2022/10/01 12:45:28;;;;;;;0.40;0.40;;;;;;;;;;5029236;28;20671;-60
2022/10/01 12:48:00;;;;;;;0.40;0.40;;;;;;;;;;5027115;28;20209;-59
2022/10/01 12:50:32;;;;;;;5.00;1.95;;;;;;;;;;5028434;28;20233;-59
2022/10/01 12:53:10;;;;;;;15.88;4.20;;;;;;;;;;5029101;28;20686;-58
2022/10/01 12:55:45;;;;;;;0.90;0.57;;;;;;;;;;5028453;28;20212;-60
2022/10/01 12:58:18;;;;;;;0.40;0.40;;;;;;;;;;5029096;28;20208;-60
2022/10/01 13:00:52;;;;;;;0.35;0.35;;;;;;;;;;5028649;28;20204;-62
2022/10/01 13:03:28;;;;;;;0.73;0.40;;;;;;;;;;5028734;28;20327;-63
2022/10/01 13:06:06;;;;;;;3.65;1.58;;;;;;;;;;5027329;28;20211;-58
2022/10/01 13:08:41;;;;;;;1.75;1.30;;;;;;;;;;5028579;28;20228;-60
2022/10/01 13:11:12;;;;;;;0.52;0.30;;;;;;;;;;5028247;28;20196;-59
2022/10/01 13:13:40;;;;;;;0.73;0.70;;;;;;;;;;5027709;28;20214;-63
2022/10/01 13:16:11;;;;;;;4.95;0.95;;;;;;;;;;5027824;28;20204;-61
2022/10/01 13:18:42;;;;;;;0.30;0.30;;;;;;;;;;5021873;28;20205;-60
2022/10/01 13:21:13;;;;;;;0.30;0.30;;;;;;;;;;5013492;28;20200;-59
2022/10/01 13:23:45;;;;;;;0.40;0.40;;;;;;;;;;5027603;28;20209;-60
2022/10/01 13:26:17;;;;;;;0.30;0.30;;;;;;;;;;5026843;28;20236;-60
2022/10/01 13:28:55;;;;;;;0.20;0.20;;;;;;;;;;5027722;28;20322;-60
2022/10/01 13:34:37;;;;;;;0.20;0.20;;;;;;;;;;5021531;28;20212;-62
2022/10/01 13:37:15;;;;;;;0.22;0.22;;;;;;;;;;5017292;28;20216;-61
2022/10/01 13:39:42;;;;;;;0.55;0.28;;;;;;;;;;5027723;28;20208;-60
2022/10/01 13:42:15;;;;;;;0.10;0.10;;;;;;;;;;5028414;28;20216;-61
2022/10/01 13:44:42;;;;;;;0.28;0.28;;;;;;;;;;5017302;28;20216;-61
2022/10/01 13:47:12;;;;;;;0.20;0.20;;;;;;;;;;5027820;28;20216;-62
2022/10/01 13:49:41;;;;;;;0.47;0.22;;;;;;;;;;5027456;28;20220;-59
2022/10/01 13:52:08;;;;;;;1.55;0.20;;;;;;;;;;5027614;28;20270;-61
2022/10/01 13:54:38;;;;;;;0.10;0.10;;;;;;;;;;5025635;28;20655;-62
2022/10/01 13:57:09;;;;;;;0.20;0.20;;;;;;;;;;5027256;28;20228;-62
2022/10/01 13:59:37;;;;;;;0.10;0.10;;;;;;;;;;5027462;28;20200;-62
2022/10/01 14:02:21;;;;;;;0.10;0.10;;;;;;;;;;5028082;28;20227;-62
2022/10/01 14:04:50;;;;;;;0.10;0.10;;;;;;;;;;5027447;28;20864;-62
2022/10/01 14:07:20;;;;;;;0.10;0.10;;;;;;;;;;5028282;28;20215;-61
2022/10/01 14:09:49;;;;;;;0.03;0.03;;;;;;;;;;5027339;28;20239;-62
2022/10/01 14:17:54;;;;;;;0.10;0.10;;;;;;;;;;5028443;28;20203;-61
2022/10/01 14:20:24;;;;;;;0.10;0.10;;;;;;;;;;5027576;28;20220;-62
2022/10/01 14:23:00;;;;;;;0.10;0.10;;;;;;;;;;5028594;28;20633;-62
2022/10/01 14:25:31;;;;;;;0.10;0.10;;;;;;;;;;5026910;28;20576;-62
2022/10/01 14:28:13;;;;;;;3.13;0.28;;;;;;;;;;5028883;28;20196;-62
2022/10/01 14:30:44;;;;;;;0.13;0.13;;;;;;;;;;5026492;28;20227;-61
2022/10/01 14:33:18;;;;;;;0.00;0.00;;;;;;;;;;5026799;28;20204;-61
2022/10/01 14:35:49;;;;;;;0.10;0.10;;;;;;;;;;5030647;28;20218;-62
2022/10/01 14:38:20;;;;;;;0.75;0.10;;;;;;;;;;5031074;28;20204;-62
2022/10/01 14:40:47;;;;;;;0.20;0.20;;;;;;;;;;5030816;28;20781;-62
2022/10/01 14:43:19;;;;;;;4.05;0.30;;;;;;;;;;5031561;28;20204;-62
2022/10/01 14:45:51;;;;;;;0.10;0.10;;;;;;;;;;5030991;28;20238;-60
2022/10/01 14:48:18;;;;;;;0.98;0.47;;;;;;;;;;5030725;28;20223;-63
2022/10/01 14:50:49;;;;;;;2.97;0.30;;;;;;;;;;5031306;28;20299;-63
2022/10/01 14:53:23;;;;;;;0.65;0.20;;;;;;;;;;5031019;28;20673;-61
2022/10/01 14:55:52;;;;;;;0.70;0.50;;;;;;;;;;5031394;28;20223;-61
2022/10/01 14:58:24;;;;;;;0.35;0.30;;;;;;;;;;5029795;28;20208;-63
2022/10/01 15:00:52;;;;;;;0.28;0.28;;;;;;;;;;5028815;28;20699;-61
2022/10/01 15:03:19;;;;;;;0.28;0.20;;;;;;;;;;5029508;28;20220;-61
2022/10/01 15:05:49;;;;;;;0.47;0.47;;;;;;;;;;5031483;28;20223;-60
2022/10/01 15:08:16;;;;;;;2.97;0.20;;;;;;;;;;5030041;28;20227;-60
2022/10/01 15:10:46;;;;;;;0.30;0.30;;;;;;;;;;5031002;28;20254;-61
2022/10/01 15:13:18;;;;;;;0.77;0.10;;;;;;;;;;5030591;28;20204;-62
2022/10/01 15:15:45;;;;;;;1.15;0.17;;;;;;;;;;5020317;28;20219;-61
2022/10/01 15:18:14;;;;;;;0.28;0.20;;;;;;;;;;5030794;28;20204;-62